Accueil
METAR-TAF:

METAR-TAF

Aéroports :

Aéroport d'Épinal-Mirecourt

Épinal, France

latitude: 48-19-31N, longitude: 6-04-00E, altitude: 330 m

Observation

Le bulletin a été fait il y a 41 minutes, à 16:30 UTC
Vent 9 kt de est/nord-est
Température 4°C
Humidité 75%
Pression 1025 hPa
Visibilité 10 km ou plus
Quelques nuages à une hauteur de 2800 ft
Ciel couvert à une hauteur de 5200 ft

METAR: LFSG 051630Z AUTO 06009KT 9999 FEW028 OVC052 04/M00 Q1025

Heure: 18:11 (17:11 UTC)


TAF: absent

Observations et prévisions météorologiques de plus de 4000 aéroports (messages METAR et TAF).

Les stations disponibles sont représentées par des disques jaunes et rouges sur la carte.

Passer la souris dessus pour voir le nom de la station.

Cliquer dessus pour voir les observations et prévisions météorologiques.

Pour changer de carte: cliquez sur les boutons verts avec une croix noire pour zoomer, sur le bouton vert avec un tiret pour effectuer un zoom arrière, ou sur les flèches vertes pour les cartes adjacentes.


METAR-TAF: